createdAt,value
2022-11-09T00:00:19.979Z,100761.58
2022-11-09T00:02:47.132Z,100757.41
2022-11-09T00:05:18.172Z,100755.83
2022-11-09T00:07:46.283Z,100766.55
2022-11-09T00:10:10.950Z,100761.56
2022-11-09T00:12:36.550Z,100759.94
2022-11-09T00:15:02.476Z,100753.77
2022-11-09T00:17:31.157Z,100763.35
2022-11-09T00:19:59.427Z,100750.73
2022-11-09T00:22:25.656Z,100756.48
2022-11-09T00:24:51.142Z,100760.14
2022-11-09T00:27:17.881Z,100767.59
2022-11-09T00:29:43.310Z,100759.16
2022-11-09T00:32:08.119Z,100761.31
2022-11-09T00:34:35.321Z,100766.71
2022-11-09T00:37:00.968Z,100769.95
2022-11-09T00:39:25.687Z,100762.53
2022-11-09T00:41:49.437Z,100762.05
2022-11-09T00:44:13.570Z,100766.87
2022-11-09T00:46:38.317Z,100767.00
2022-11-09T00:49:03.276Z,100774.06
2022-11-09T00:51:27.809Z,100774.30
2022-11-09T00:53:55.118Z,100786.44
2022-11-09T00:56:22.004Z,100778.11
2022-11-09T00:58:46.392Z,100774.02
2022-11-09T01:01:15.572Z,100769.95
2022-11-09T01:03:40.568Z,100773.11
2022-11-09T01:06:05.435Z,100772.81
2022-11-09T01:08:29.843Z,100783.98
2022-11-09T01:10:55.957Z,100775.80
2022-11-09T01:13:40.684Z,100771.65
2022-11-09T01:16:09.332Z,100771.52
2022-11-09T01:18:37.890Z,100766.17
2022-11-09T01:21:04.540Z,100771.57
2022-11-09T01:23:30.039Z,100774.05
2022-11-09T01:26:00.541Z,100769.47
2022-11-09T01:28:27.060Z,100774.62
2022-11-09T01:30:53.819Z,100768.30
2022-11-09T01:33:19.653Z,100765.94
2022-11-09T01:35:47.621Z,100770.45
2022-11-09T01:38:12.919Z,100781.97
2022-11-09T01:40:40.788Z,100782.85
2022-11-09T01:43:13.532Z,100781.82
2022-11-09T01:45:40.263Z,100787.77
2022-11-09T01:49:53.503Z,100791.47
2022-11-09T01:52:34.164Z,100786.51
2022-11-09T01:55:13.080Z,100788.02
2022-11-09T01:57:46.834Z,100787.16
2022-11-09T02:00:16.703Z,100791.91
2022-11-09T02:02:47.620Z,100788.62
2022-11-09T02:05:29.801Z,100793.11
2022-11-09T02:07:58.899Z,100786.69
2022-11-09T02:11:59.850Z,100782.85
2022-11-09T02:14:30.637Z,100787.05
2022-11-09T02:16:56.347Z,100790.53
2022-11-09T02:19:24.809Z,100781.82
2022-11-09T02:22:22.573Z,100790.73
2022-11-09T02:24:52.836Z,100785.09
2022-11-09T02:26:14.854Z,100791.52
2022-11-09T02:28:43.133Z,100792.84
2022-11-09T02:31:14.680Z,100788.28
2022-11-09T02:33:46.424Z,100796.16
2022-11-09T02:36:18.399Z,100786.11
2022-11-09T02:38:46.933Z,100791.54
2022-11-09T02:41:18.229Z,100791.25
2022-11-09T02:43:44.716Z,100793.03
2022-11-09T02:46:13.538Z,100803.47
2022-11-09T02:48:39.076Z,100794.86
2022-11-09T02:51:04.057Z,100799.46
2022-11-09T02:53:28.583Z,100802.58
2022-11-09T02:55:53.987Z,100794.74
2022-11-09T02:58:18.361Z,100805.25
2022-11-09T03:00:43.778Z,100795.34
2022-11-09T03:03:10.888Z,100795.05
2022-11-09T03:05:35.620Z,100797.45
2022-11-09T03:08:02.769Z,100793.48
2022-11-09T03:10:30.385Z,100786.27
2022-11-09T03:12:55.804Z,100785.53
2022-11-09T03:15:25.552Z,100783.70
2022-11-09T03:17:51.208Z,100780.92
2022-11-09T03:20:15.704Z,100783.67
2022-11-09T03:22:41.185Z,100783.86
2022-11-09T03:25:08.365Z,100790.44
2022-11-09T03:27:33.352Z,100784.08
2022-11-09T03:29:58.265Z,100785.09
2022-11-09T03:32:22.778Z,100787.77
2022-11-09T03:34:48.720Z,100785.38
2022-11-09T03:35:59.130Z,100793.00
2022-11-09T03:38:25.133Z,100789.06
2022-11-09T03:40:50.817Z,100795.41
2022-11-09T03:43:17.093Z,100792.95
2022-11-09T03:45:44.517Z,100794.29
2022-11-09T03:48:09.744Z,100788.34
2022-11-09T03:50:35.932Z,100789.48
2022-11-09T03:53:00.623Z,100786.88
2022-11-09T03:55:45.026Z,100785.03
2022-11-09T03:58:13.091Z,100783.21
2022-11-09T03:59:22.709Z,100793.52
2022-11-09T04:01:47.848Z,100785.95
2022-11-09T04:04:12.507Z,100786.88
2022-11-09T04:06:37.301Z,100786.74
2022-11-09T04:09:04.319Z,100785.03
2022-11-09T04:11:29.514Z,100788.41
2022-11-09T04:13:54.131Z,100790.30
2022-11-09T04:16:18.986Z,100793.05
2022-11-09T04:18:45.466Z,100798.43
2022-11-09T04:21:09.623Z,100790.30
2022-11-09T04:23:34.743Z,100797.11
2022-11-09T04:26:00.557Z,100802.38
2022-11-09T04:28:25.455Z,100803.52
2022-11-09T04:30:50.148Z,100808.94
2022-11-09T04:33:14.668Z,100815.14
2022-11-09T04:35:40.444Z,100812.68
2022-11-09T04:38:08.341Z,100815.28
2022-11-09T04:40:36.666Z,100821.38
2022-11-09T04:43:03.307Z,100820.30
2022-11-09T04:44:12.736Z,100826.90
2022-11-09T04:46:37.851Z,100823.63
2022-11-09T04:49:02.642Z,100825.44
2022-11-09T04:51:28.055Z,100827.80
2022-11-09T04:53:53.284Z,100826.64
2022-11-09T04:56:17.070Z,100835.39
2022-11-09T04:58:40.820Z,100846.75
2022-11-09T05:01:13.046Z,100843.42
2022-11-09T05:03:39.499Z,100847.88
2022-11-09T05:06:08.147Z,100850.18
2022-11-09T05:08:32.010Z,100848.47
2022-11-09T05:10:58.580Z,100851.63
2022-11-09T05:13:23.307Z,100859.37
2022-11-09T05:15:47.304Z,100860.56
2022-11-09T05:18:12.109Z,100864.23
2022-11-09T05:20:37.304Z,100862.23
2022-11-09T05:23:20.360Z,100869.73
2022-11-09T05:25:45.302Z,100874.84
2022-11-09T05:28:09.840Z,100880.48
2022-11-09T05:30:35.325Z,100875.34
2022-11-09T05:33:02.607Z,100866.06
2022-11-09T05:35:29.717Z,100883.59
2022-11-09T05:37:53.462Z,100873.11
2022-11-09T05:40:21.418Z,100875.62
2022-11-09T05:42:46.542Z,100881.34
2022-11-09T05:45:40.945Z,100886.42
2022-11-09T05:50:26.778Z,100893.41
2022-11-09T05:52:54.890Z,100893.87
2022-11-09T05:54:03.854Z,100898.44
2022-11-09T05:55:14.583Z,100898.44
2022-11-09T05:56:23.508Z,100893.61
2022-11-09T05:58:48.097Z,100902.38
2022-11-09T05:59:57.118Z,100907.69
2022-11-09T06:02:25.420Z,100903.74
2022-11-09T06:04:51.240Z,100906.58
2022-11-09T06:06:08.079Z,100912.53
2022-11-09T06:08:30.273Z,100901.42
2022-11-09T06:12:20.217Z,100904.41
2022-11-09T06:14:46.106Z,100904.98
2022-11-09T06:17:12.080Z,100907.87
2022-11-09T06:18:22.763Z,100910.12
2022-11-09T06:21:06.592Z,100904.98
2022-11-09T06:23:31.136Z,100920.31
2022-11-09T06:24:40.821Z,100921.77
2022-11-09T06:27:05.965Z,100916.38
2022-11-09T06:28:14.613Z,100923.84
2022-11-09T06:29:23.388Z,100926.29
2022-11-09T06:30:32.227Z,100926.29
2022-11-09T06:31:43.102Z,100927.18
2022-11-09T06:34:08.793Z,100921.30
2022-11-09T06:36:33.728Z,100916.95
2022-11-09T06:37:43.457Z,100923.77
2022-11-09T06:38:53.357Z,100928.34
2022-11-09T06:40:02.540Z,100925.67
2022-11-09T06:41:11.290Z,100922.91
2022-11-09T06:42:20.508Z,100921.09
2022-11-09T06:43:29.573Z,100920.16
2022-11-09T06:44:39.499Z,100921.74
2022-11-09T06:47:03.381Z,100919.80
2022-11-09T06:48:13.098Z,100922.88
2022-11-09T06:50:44.284Z,100923.90
2022-11-09T06:53:12.381Z,100919.98
2022-11-09T06:54:21.033Z,100923.12
2022-11-09T06:55:31.908Z,100927.31
2022-11-09T06:56:41.626Z,100919.91
2022-11-09T06:57:50.807Z,100928.56
2022-11-09T06:58:59.452Z,100922.98
2022-11-09T07:01:28.789Z,100921.00
2022-11-09T07:03:52.340Z,100928.63
2022-11-09T07:05:02.160Z,100931.66
2022-11-09T07:06:13.541Z,100928.03
2022-11-09T07:08:38.553Z,100910.98
2022-11-09T07:12:43.388Z,100927.39
2022-11-09T07:15:10.255Z,100928.08
2022-11-09T07:17:40.231Z,100910.98
2022-11-09T07:18:53.434Z,100931.95
2022-11-09T07:20:03.398Z,100931.78
2022-11-09T07:22:29.976Z,100921.33
2022-11-09T07:23:42.381Z,100928.16
2022-11-09T07:24:55.431Z,100927.22
2022-11-09T07:26:04.561Z,100929.00
2022-11-09T07:27:14.265Z,100918.18
2022-11-09T07:28:22.887Z,100919.84
2022-11-09T07:29:31.607Z,100914.38
2022-11-09T07:32:03.439Z,100919.78
2022-11-09T07:34:34.660Z,100914.95
2022-11-09T07:36:58.944Z,100925.44
2022-11-09T07:38:09.811Z,100919.78
2022-11-09T07:39:18.870Z,100928.72
2022-11-09T07:40:28.355Z,100924.13
2022-11-09T07:42:52.066Z,100930.58
2022-11-09T07:44:01.243Z,100928.55
2022-11-09T07:46:28.642Z,100921.55
2022-11-09T07:47:37.657Z,100924.84
2022-11-09T07:50:01.405Z,100932.28
2022-11-09T07:51:11.252Z,100935.58
2022-11-09T07:52:20.099Z,100930.03
2022-11-09T07:54:48.235Z,100927.63
2022-11-09T07:55:59.851Z,100930.12
2022-11-09T07:57:08.911Z,100926.55
2022-11-09T07:58:18.980Z,100928.37
2022-11-09T08:00:43.657Z,100926.42
2022-11-09T08:01:53.124Z,100929.45
2022-11-09T08:03:03.999Z,100930.94
2022-11-09T08:05:29.868Z,100924.63
2022-11-09T08:06:39.309Z,100930.41
2022-11-09T08:07:49.342Z,100930.27
2022-11-09T08:08:59.586Z,100934.52
2022-11-09T08:11:27.248Z,100915.80
2022-11-09T08:13:51.105Z,100924.48
2022-11-09T08:15:01.948Z,100924.03
2022-11-09T08:17:26.234Z,100920.39
2022-11-09T08:18:35.930Z,100920.84
2022-11-09T08:21:03.578Z,100913.46
2022-11-09T08:23:28.255Z,100918.37
2022-11-09T08:24:37.435Z,100918.84
2022-11-09T08:25:48.436Z,100910.59
2022-11-09T08:28:15.665Z,100914.89
2022-11-09T08:30:39.813Z,100909.08
2022-11-09T08:31:53.012Z,100921.30
2022-11-09T08:33:03.260Z,100922.95
2022-11-09T08:35:29.848Z,100917.66
2022-11-09T08:37:55.522Z,100915.83
2022-11-09T08:41:38.056Z,100915.29
2022-11-09T08:42:47.778Z,100919.37
2022-11-09T08:45:13.432Z,100913.96
2022-11-09T08:46:22.849Z,100922.66
2022-11-09T08:48:47.800Z,100918.33
2022-11-09T08:51:11.376Z,100909.12
2022-11-09T08:53:35.217Z,100906.42
2022-11-09T08:54:44.072Z,100908.17
2022-11-09T08:57:08.291Z,100896.52
2022-11-09T08:58:19.129Z,100901.27
2022-11-09T09:00:47.437Z,100905.59
2022-11-09T09:02:00.665Z,100899.91
2022-11-09T09:04:26.860Z,100888.20
2022-11-09T09:05:37.865Z,100895.09
2022-11-09T09:08:03.852Z,100892.14
2022-11-09T09:10:29.215Z,100897.08
2022-11-09T09:11:37.848Z,100898.58
2022-11-09T09:12:47.424Z,100900.22
2022-11-09T09:15:12.441Z,100892.94
2022-11-09T09:17:37.258Z,100896.48
2022-11-09T09:18:49.188Z,100903.41
2022-11-09T09:19:57.801Z,100898.13
2022-11-09T09:21:14.272Z,100898.02
2022-11-09T09:22:25.088Z,100895.63
2022-11-09T09:24:53.030Z,100893.13
2022-11-09T09:27:23.051Z,100898.52
2022-11-09T09:28:33.265Z,100893.49
2022-11-09T09:29:44.626Z,100888.11
2022-11-09T09:30:53.966Z,100892.45
2022-11-09T09:33:37.568Z,100880.42
2022-11-09T09:34:46.918Z,100891.59
2022-11-09T09:37:13.558Z,100883.20
2022-11-09T09:38:24.167Z,100886.30
2022-11-09T09:40:44.930Z,100883.41
2022-11-09T09:43:17.083Z,100887.66
2022-11-09T09:45:54.396Z,100882.55
2022-11-09T09:48:56.934Z,100870.36
2022-11-09T09:51:44.425Z,100871.69
2022-11-09T09:54:21.648Z,100869.36
2022-11-09T09:55:42.896Z,100876.33
2022-11-09T09:58:31.593Z,100865.13
2022-11-09T10:02:24.347Z,100866.88
2022-11-09T10:03:34.276Z,100867.77
2022-11-09T10:04:43.729Z,100871.35
2022-11-09T10:06:04.071Z,100882.13
2022-11-09T10:08:59.103Z,100869.61
2022-11-09T10:11:31.690Z,100866.41
2022-11-09T10:12:56.885Z,100869.89
2022-11-09T10:15:35.691Z,100866.81
2022-11-09T10:18:33.637Z,100871.35
2022-11-09T10:20:15.663Z,100873.20
2022-11-09T10:21:43.795Z,100875.11
2022-11-09T10:27:35.832Z,100875.38
2022-11-09T10:29:14.426Z,100871.56
2022-11-09T10:30:02.062Z,100872.42
2022-11-09T10:32:33.009Z,100867.87
2022-11-09T10:33:43.880Z,100864.06
2022-11-09T10:35:06.342Z,100860.37
2022-11-09T10:37:42.811Z,100860.00
2022-11-09T10:38:56.744Z,100859.73
2022-11-09T10:41:48.658Z,100854.98
2022-11-09T10:43:15.566Z,100864.50
2022-11-09T10:44:42.810Z,100859.22
2022-11-09T10:47:26.041Z,100854.66
2022-11-09T10:48:55.517Z,100854.41
2022-11-09T10:51:51.656Z,100852.18
2022-11-09T10:54:40.246Z,100857.67
2022-11-09T10:56:20.974Z,100860.20
2022-11-09T10:58:01.154Z,100856.42
2022-11-09T10:59:39.834Z,100856.34
2022-11-09T11:01:16.234Z,100856.52
2022-11-09T11:02:46.632Z,100854.50
2022-11-09T11:04:23.987Z,100854.30
2022-11-09T11:06:01.323Z,100836.50
2022-11-09T11:10:22.340Z,100840.02
2022-11-09T11:13:12.377Z,100829.23
2022-11-09T11:14:45.187Z,100837.17
2022-11-09T11:16:28.542Z,100840.62
2022-11-09T11:18:19.221Z,100840.62
2022-11-09T11:19:47.254Z,100830.92
2022-11-09T11:22:37.721Z,100833.95
2022-11-09T11:24:20.430Z,100839.97
2022-11-09T11:27:19.724Z,100836.65
2022-11-09T11:28:51.524Z,100834.69
2022-11-09T11:31:40.664Z,100826.29
2022-11-09T11:33:17.732Z,100839.30
2022-11-09T11:34:59.566Z,100833.80
2022-11-09T11:38:11.674Z,100825.59
2022-11-09T11:40:01.789Z,100834.38
2022-11-09T11:41:48.078Z,100830.72
2022-11-09T11:43:28.468Z,100829.84
2022-11-09T11:46:42.930Z,100822.11
2022-11-09T11:50:27.968Z,100824.16
2022-11-09T11:55:16.771Z,100815.30
2022-11-09T12:00:11.579Z,100815.19
2022-11-09T12:03:33.158Z,100824.55
2022-11-09T14:25:54.842Z,100798.51
2022-11-09T14:30:39.606Z,100801.45
2022-11-09T14:34:02.043Z,100796.08
2022-11-09T14:36:50.247Z,100798.09
2022-11-09T14:38:22.542Z,100810.52
2022-11-09T14:39:51.936Z,100810.63
2022-11-09T14:41:27.073Z,100812.45
2022-11-09T14:44:21.953Z,100812.87
2022-11-09T14:47:18.159Z,100811.13
2022-11-09T14:51:38.771Z,100816.94
2022-11-09T14:53:06.731Z,100815.86
2022-11-09T14:54:34.784Z,100815.95
2022-11-09T14:56:05.807Z,100816.05
2022-11-09T14:57:33.945Z,100812.47
2022-11-09T15:00:28.525Z,100811.24
2022-11-09T15:03:29.949Z,100817.75
2022-11-09T15:06:19.726Z,100817.17
2022-11-09T15:07:48.412Z,100820.56
2022-11-09T15:10:36.975Z,100824.81
2022-11-09T15:14:58.087Z,100825.05
2022-11-09T15:16:33.168Z,100826.63
2022-11-09T15:18:00.957Z,100832.19
2022-11-09T15:20:47.402Z,100816.92
2022-11-09T15:22:52.169Z,100823.84
2022-11-09T15:24:21.324Z,100821.52
2022-11-09T15:27:27.323Z,100817.80
2022-11-09T15:28:55.138Z,100821.34
2022-11-09T15:32:11.379Z,100812.93
2022-11-09T15:35:06.138Z,100807.92
2022-11-09T15:37:53.356Z,100813.61
2022-11-09T15:40:39.163Z,100814.91
2022-11-09T15:43:43.718Z,100808.06
2022-11-09T15:46:36.353Z,100804.05
2022-11-09T15:49:24.611Z,100807.75
2022-11-09T15:52:11.571Z,100808.07
2022-11-09T15:54:54.480Z,100808.33
2022-11-09T15:56:24.143Z,100807.23
2022-11-09T15:57:54.322Z,100811.03
2022-11-09T16:00:46.020Z,100814.43
2022-11-09T16:02:14.576Z,100824.15
2022-11-09T16:04:56.685Z,100824.70
2022-11-09T16:07:53.877Z,100826.52
2022-11-09T16:10:39.644Z,100815.00
2022-11-09T16:12:08.673Z,100831.64
2022-11-09T16:14:50.522Z,100823.13
2022-11-09T16:17:34.129Z,100824.31
2022-11-09T16:19:01.496Z,100835.67
2022-11-09T16:20:29.758Z,100834.91
2022-11-09T16:23:16.075Z,100836.23
2022-11-09T16:26:10.794Z,100833.93
2022-11-09T16:28:55.726Z,100828.02
2022-11-09T16:30:24.138Z,100834.97
2022-11-09T16:31:52.734Z,100832.37
2022-11-09T16:34:34.880Z,100818.80
2022-11-09T16:37:31.885Z,100831.64
2022-11-09T16:40:18.979Z,100821.01
2022-11-09T16:43:03.799Z,100828.32
2022-11-09T16:45:51.872Z,100834.65
2022-11-09T16:48:37.098Z,100825.88
2022-11-09T16:51:19.885Z,100822.48
2022-11-09T16:54:21.150Z,100825.39
2022-11-09T16:57:04.432Z,100831.85
2022-11-09T16:59:46.201Z,100825.84
2022-11-09T17:02:29.081Z,100832.95
2022-11-09T17:05:13.398Z,100823.33
2022-11-09T17:08:18.483Z,100826.08
2022-11-09T17:11:05.779Z,100827.25
2022-11-09T17:13:59.221Z,100826.60
2022-11-09T17:16:41.989Z,100822.27
2022-11-09T17:20:49.797Z,100819.05
2022-11-09T17:23:33.396Z,100818.39
2022-11-09T17:26:17.377Z,100818.62
2022-11-09T17:28:59.932Z,100825.92
2022-11-09T17:31:41.902Z,100822.50
2022-11-09T17:33:10.083Z,100823.09
2022-11-09T17:36:00.989Z,100819.20
2022-11-09T17:38:43.509Z,100822.16
2022-11-09T17:41:26.336Z,100821.45
2022-11-09T17:44:09.091Z,100818.89
2022-11-09T17:46:52.907Z,100818.97
2022-11-09T17:48:21.450Z,100823.08
2022-11-09T17:51:24.756Z,100813.84
2022-11-09T17:54:06.969Z,100808.65
2022-11-09T17:55:36.798Z,100814.53
2022-11-09T17:58:20.791Z,100807.02
2022-11-09T17:59:48.602Z,100812.87
2022-11-09T18:01:19.927Z,100812.12
2022-11-09T18:04:07.435Z,100801.16
2022-11-09T18:05:40.675Z,100815.95
2022-11-09T18:08:22.874Z,100815.61
2022-11-09T18:11:06.588Z,100797.89
2022-11-09T18:13:49.350Z,100811.42
2022-11-09T18:16:31.017Z,100812.56
2022-11-09T18:17:58.595Z,100812.16
2022-11-09T18:20:40.702Z,100815.66
2022-11-09T18:23:25.258Z,100816.66
2022-11-09T18:26:09.202Z,100817.52
2022-11-09T18:27:38.925Z,100823.44
2022-11-09T18:30:23.339Z,100817.52
2022-11-09T18:31:53.667Z,100815.34
2022-11-09T18:33:20.549Z,100821.62
2022-11-09T18:36:07.005Z,100822.93
2022-11-09T18:38:52.506Z,100823.89
2022-11-09T18:41:36.944Z,100814.98
2022-11-09T18:44:20.110Z,100819.73
2022-11-09T18:45:59.214Z,100822.91
2022-11-09T18:48:42.534Z,100820.80
2022-11-09T18:51:25.000Z,100831.57
2022-11-09T18:54:07.480Z,100829.93
2022-11-09T18:55:35.029Z,100833.92
2022-11-09T18:58:20.843Z,100827.36
2022-11-09T19:01:05.758Z,100834.59
2022-11-09T19:03:56.288Z,100833.00
2022-11-09T19:05:24.568Z,100840.69
2022-11-09T19:06:53.549Z,100840.72
2022-11-09T19:09:38.288Z,100837.52
2022-11-09T19:12:24.747Z,100837.52
2022-11-09T19:13:52.137Z,100841.55
2022-11-09T19:16:34.200Z,100838.48
2022-11-09T19:19:17.954Z,100842.22
2022-11-09T19:20:46.818Z,100844.46
2022-11-09T19:22:18.668Z,100847.27
2022-11-09T19:25:00.810Z,100845.21
2022-11-09T19:27:43.777Z,100840.72
2022-11-09T19:30:29.181Z,100838.88
2022-11-09T19:31:57.211Z,100839.39
2022-11-09T19:34:42.247Z,100837.33
2022-11-09T19:37:26.117Z,100840.08
2022-11-09T19:38:55.160Z,100841.45
2022-11-09T19:41:37.409Z,100838.40
2022-11-09T19:44:20.283Z,100833.20
2022-11-09T19:45:47.280Z,100842.65
2022-11-09T19:47:14.089Z,100847.13
2022-11-09T19:48:46.933Z,100847.20
2022-11-09T19:51:31.484Z,100840.66
2022-11-09T19:52:59.345Z,100844.70
2022-11-09T19:54:26.471Z,100847.23
2022-11-09T19:56:01.899Z,100843.91
2022-11-09T20:00:12.337Z,100847.20
2022-11-09T20:02:58.486Z,100838.44
2022-11-09T20:05:41.823Z,100841.17
2022-11-09T20:08:28.165Z,100843.09
2022-11-09T20:11:18.367Z,100843.02
2022-11-09T20:12:51.231Z,100840.83
2022-11-09T20:14:20.367Z,100839.94
2022-11-09T20:17:04.416Z,100838.57
2022-11-09T20:19:53.356Z,100840.25
2022-11-09T20:22:35.768Z,100836.69
2022-11-09T20:25:19.262Z,100841.11
2022-11-09T20:28:02.207Z,100836.69
2022-11-09T20:30:46.211Z,100842.03
2022-11-09T20:33:28.800Z,100841.17
2022-11-09T20:36:11.755Z,100850.94
2022-11-09T20:37:39.027Z,100848.70
2022-11-09T20:39:06.206Z,100843.49
2022-11-09T20:41:48.849Z,100844.08
2022-11-09T20:44:30.609Z,100845.90
2022-11-09T20:47:30.295Z,100838.88
2022-11-09T20:50:04.270Z,100832.67
2022-11-09T20:52:46.944Z,100831.00
2022-11-09T20:55:31.004Z,100835.41
2022-11-09T20:56:59.478Z,100842.94
2022-11-09T20:58:27.109Z,100838.45
2022-11-09T21:02:31.672Z,100832.67
2022-11-09T21:05:13.846Z,100838.16
2022-11-09T21:07:55.941Z,100828.53
2022-11-09T21:10:37.913Z,100826.92
2022-11-09T21:13:36.167Z,100826.09
2022-11-09T21:15:04.144Z,100834.53
2022-11-09T21:16:32.267Z,100831.86
2022-11-09T21:19:15.448Z,100831.69
2022-11-09T21:21:59.703Z,100837.86
2022-11-09T21:23:28.174Z,100836.11
2022-11-09T21:26:47.374Z,100833.92
2022-11-09T21:29:52.536Z,100840.20
2022-11-09T21:31:21.570Z,100839.08
2022-11-09T21:32:49.770Z,100837.51
2022-11-09T21:35:31.609Z,100842.98
2022-11-09T21:38:34.149Z,100840.83
2022-11-09T21:40:02.173Z,100851.17
2022-11-09T21:42:56.424Z,100846.75
2022-11-09T21:45:40.579Z,100842.47
2022-11-09T21:47:08.488Z,100844.72
2022-11-09T21:49:50.438Z,100839.02
2022-11-09T21:52:32.229Z,100840.63
2022-11-09T21:53:59.875Z,100850.06
2022-11-09T21:56:43.628Z,100838.32
2022-11-09T21:58:11.844Z,100845.84
2022-11-09T22:00:53.927Z,100839.30
2022-11-09T22:02:22.464Z,100840.35
2022-11-09T22:03:51.500Z,100836.38
2022-11-09T22:05:22.820Z,100841.20
2022-11-09T22:08:33.983Z,100842.16
2022-11-09T22:11:27.451Z,100838.34
2022-11-09T22:14:44.943Z,100835.59
2022-11-09T22:16:14.720Z,100846.11
2022-11-09T22:19:17.359Z,100844.84
2022-11-09T22:20:54.949Z,100856.22
2022-11-09T22:23:37.868Z,100854.61
2022-11-09T22:26:23.326Z,100855.83
2022-11-09T22:27:51.511Z,100856.44
2022-11-09T22:29:19.564Z,100853.04
2022-11-09T22:30:46.694Z,100855.80
2022-11-09T22:33:32.591Z,100853.70
2022-11-09T22:36:15.895Z,100842.31
2022-11-09T22:37:43.898Z,100841.42
2022-11-09T22:40:27.513Z,100842.65
2022-11-09T22:43:10.997Z,100837.41
2022-11-09T22:44:40.189Z,100841.20
2022-11-09T22:46:16.994Z,100845.21
2022-11-09T22:48:59.731Z,100844.08
2022-11-09T22:51:42.548Z,100834.26
2022-11-09T22:54:25.161Z,100836.69
2022-11-09T22:57:10.987Z,100839.21
2022-11-09T22:59:53.695Z,100829.09
2022-11-09T23:01:22.370Z,100837.69
2022-11-09T23:02:50.436Z,100835.28
2022-11-09T23:05:32.806Z,100829.81
2022-11-09T23:08:16.583Z,100838.16
2022-11-09T23:09:43.895Z,100840.06
2022-11-09T23:11:15.168Z,100834.11
2022-11-09T23:13:58.293Z,100834.43
2022-11-09T23:16:42.960Z,100824.69
2022-11-09T23:19:43.498Z,100828.58
2022-11-09T23:21:11.817Z,100838.94
2022-11-09T23:23:56.597Z,100830.52
2022-11-09T23:25:42.656Z,100833.09
2022-11-09T23:27:10.833Z,100838.16
2022-11-09T23:29:54.103Z,100834.30
2022-11-09T23:31:26.812Z,100842.05
2022-11-09T23:32:54.069Z,100842.23
2022-11-09T23:35:35.966Z,100836.97
2022-11-09T23:37:02.846Z,100835.70
2022-11-09T23:39:48.413Z,100830.08
2022-11-09T23:42:30.812Z,100831.23
2022-11-09T23:43:57.883Z,100823.30
2022-11-09T23:46:40.675Z,100827.20
2022-11-09T23:48:14.179Z,100836.34
2022-11-09T23:49:41.229Z,100819.13
2022-11-09T23:51:10.395Z,100824.02
2022-11-09T23:52:38.142Z,100827.17
2022-11-09T23:54:05.292Z,100827.03
2022-11-09T23:55:32.305Z,100822.82
2022-11-09T23:57:01.006Z,100823.20
2022-11-09T23:58:29.408Z,100825.39
2022-11-09T23:59:56.622Z,100832.84
